createdAt,value
2018-06-07T00:02:24.515Z,18.37
2018-06-07T00:04:53.269Z,18.87
2018-06-07T00:07:22.045Z,17.87
2018-06-07T00:09:50.798Z,20.67
2018-06-07T00:12:19.687Z,20.57
2018-06-07T00:14:48.422Z,19.73
2018-06-07T00:17:17.358Z,21.70
2018-06-07T00:19:46.143Z,15.57
2018-06-07T00:22:14.927Z,17.40
2018-06-07T00:24:43.695Z,18.23
2018-06-07T00:27:12.456Z,15.67
2018-06-07T00:29:41.204Z,21.97
2018-06-07T00:32:09.963Z,18.93
2018-06-07T00:34:38.829Z,19.73
2018-06-07T00:37:07.695Z,20.67
2018-06-07T00:39:36.463Z,15.30
2018-06-07T00:42:05.243Z,16.17
2018-06-07T00:44:34.011Z,18.37
2018-06-07T00:47:02.787Z,22.53
2018-06-07T00:49:31.596Z,21.57
2018-06-07T00:52:00.334Z,18.27
2018-06-07T00:54:29.091Z,20.60
2018-06-07T00:57:09.623Z,16.90
2018-06-07T00:59:38.389Z,22.93
2018-06-07T01:02:07.258Z,22.40
2018-06-07T01:04:36.037Z,18.80
2018-06-07T01:07:04.858Z,18.30
2018-06-07T01:09:33.616Z,17.90
2018-06-07T01:12:02.380Z,16.77
2018-06-07T01:14:31.132Z,18.77
2018-06-07T01:16:59.902Z,20.90
2018-06-07T01:19:28.672Z,21.33
2018-06-07T01:21:57.451Z,25.20
2018-06-07T01:24:26.773Z,27.67
2018-06-07T01:26:55.554Z,41.40
2018-06-07T01:29:35.240Z,40.20
2018-06-07T01:32:31.757Z,29.80
2018-06-07T01:35:00.503Z,28.50
2018-06-07T01:37:29.366Z,30.63
2018-06-07T01:39:58.120Z,32.70
2018-06-07T01:42:26.867Z,30.77
2018-06-07T01:44:55.621Z,30.83
2018-06-07T01:47:24.380Z,34.87
2018-06-07T01:49:53.141Z,32.37
2018-06-07T01:52:21.897Z,41.10
2018-06-07T01:54:50.666Z,36.33
2018-06-07T01:57:19.411Z,35.83
2018-06-07T01:59:48.250Z,31.27
2018-06-07T02:02:17.014Z,30.23
2018-06-07T02:04:46.356Z,38.03
2018-06-07T02:07:15.155Z,32.83
2018-06-07T02:09:43.922Z,37.57
2018-06-07T02:12:12.697Z,38.07
2018-06-07T02:14:41.494Z,38.57
2018-06-07T02:17:10.293Z,34.97
2018-06-07T02:19:39.043Z,36.57
2018-06-07T02:22:08.764Z,25.97
2018-06-07T02:24:37.523Z,31.00
2018-06-07T02:27:06.308Z,29.60
2018-06-07T02:29:35.080Z,29.33
2018-06-07T02:32:03.852Z,25.30
2018-06-07T02:34:32.648Z,30.43
2018-06-07T02:37:01.424Z,26.00
2018-06-07T02:39:30.179Z,26.60
2018-06-07T02:41:58.927Z,22.27
2018-06-07T02:44:27.733Z,22.07
2018-06-07T02:46:56.480Z,23.67
2018-06-07T02:49:25.240Z,33.53
2018-06-07T02:51:54.012Z,29.13
2018-06-07T02:54:22.774Z,37.57
2018-06-07T02:56:51.556Z,31.90
2018-06-07T02:59:20.314Z,32.77
2018-06-07T03:01:49.092Z,31.57
2018-06-07T03:04:17.863Z,26.63
2018-06-07T03:06:46.710Z,29.47
2018-06-07T03:09:15.507Z,26.67
2018-06-07T03:11:44.267Z,28.07
2018-06-07T03:14:13.029Z,25.53
2018-06-07T03:16:41.821Z,26.03
2018-06-07T03:19:10.577Z,25.70
2018-06-07T03:21:39.336Z,20.90
2018-06-07T03:24:08.087Z,24.13
2018-06-07T03:26:36.856Z,20.93
2018-06-07T03:29:05.759Z,19.10
2018-06-07T03:31:34.591Z,18.20
2018-06-07T03:34:03.350Z,23.43
2018-06-07T03:36:32.105Z,32.97
2018-06-07T03:39:00.867Z,35.60
2018-06-07T03:41:29.657Z,25.60
2018-06-07T03:43:58.427Z,31.10
2018-06-07T03:46:27.199Z,33.13
2018-06-07T03:48:55.963Z,30.43
2018-06-07T03:51:24.809Z,58.87
2018-06-07T03:53:53.567Z,67.93
2018-06-07T03:56:22.329Z,66.07
2018-06-07T03:58:51.208Z,46.90
2018-06-07T04:01:19.951Z,38.73
2018-06-07T04:03:48.731Z,47.70
2018-06-07T04:06:17.582Z,41.87
2018-06-07T04:08:46.304Z,159.00
2018-06-07T04:11:15.083Z,362.77
2018-06-07T04:13:43.950Z,321.47
2018-06-07T04:16:12.859Z,395.37
2018-06-07T04:18:41.600Z,203.47
2018-06-07T04:21:10.413Z,68.20
2018-06-07T04:23:39.159Z,37.83
2018-06-07T04:26:08.135Z,51.63
2018-06-07T04:28:36.932Z,44.53
2018-06-07T04:31:05.693Z,33.60
2018-06-07T04:33:34.453Z,32.60
2018-06-07T04:36:03.243Z,44.30
2018-06-07T04:38:32.002Z,35.73
2018-06-07T04:41:00.767Z,35.90
2018-06-07T04:43:29.553Z,34.23
2018-06-07T04:45:58.345Z,45.83
2018-06-07T04:48:27.143Z,29.67
2018-06-07T04:50:55.928Z,27.13
2018-06-07T04:53:24.699Z,31.33
2018-06-07T04:55:53.440Z,32.43
2018-06-07T04:58:22.267Z,30.80
2018-06-07T05:00:51.288Z,39.07
2018-06-07T05:03:20.055Z,34.27
2018-06-07T05:05:48.842Z,34.67
2018-06-07T05:08:17.598Z,38.10
2018-06-07T05:10:46.378Z,39.60
2018-06-07T05:13:15.179Z,34.80
2018-06-07T05:15:43.964Z,33.93
2018-06-07T05:18:12.742Z,36.43
2018-06-07T05:20:41.566Z,31.77
2018-06-07T05:23:10.393Z,35.13
2018-06-07T05:25:39.180Z,33.03
2018-06-07T05:28:07.948Z,35.47
2018-06-07T05:30:36.722Z,32.87
2018-06-07T05:33:05.539Z,37.90
2018-06-07T05:35:34.324Z,36.37
2018-06-07T05:38:03.099Z,33.70
2018-06-07T05:40:31.890Z,27.67
2018-06-07T05:43:00.780Z,34.50
2018-06-07T05:45:29.557Z,23.77
2018-06-07T05:47:58.351Z,24.57
2018-06-07T05:50:27.448Z,25.47
2018-06-07T05:52:56.207Z,34.00
2018-06-07T05:55:24.991Z,26.00
2018-06-07T05:57:53.810Z,24.63
2018-06-07T06:00:22.580Z,27.53
2018-06-07T06:02:51.429Z,31.67
2018-06-07T06:05:20.277Z,25.70
2018-06-07T06:07:49.053Z,26.97
2018-06-07T06:10:17.870Z,22.17
2018-06-07T06:12:46.635Z,22.07
2018-06-07T06:15:15.444Z,26.10
2018-06-07T06:17:44.221Z,26.67
2018-06-07T06:20:13.001Z,25.77
2018-06-07T06:22:41.808Z,19.90
2018-06-07T06:25:10.617Z,21.20
2018-06-07T06:27:39.394Z,18.00
2018-06-07T06:30:08.429Z,22.30
2018-06-07T06:32:37.209Z,18.60
2018-06-07T06:35:06.022Z,17.03
2018-06-07T06:37:48.690Z,22.20
2018-06-07T06:40:17.466Z,26.70
2018-06-07T06:42:46.241Z,22.63
2018-06-07T06:45:15.017Z,22.30
2018-06-07T06:47:43.843Z,23.43
2018-06-07T06:50:12.605Z,21.53
2018-06-07T06:52:41.424Z,19.97
2018-06-07T06:55:10.216Z,21.80
2018-06-07T06:57:39.006Z,17.13
2018-06-07T07:00:07.770Z,22.40
2018-06-07T07:02:36.567Z,16.83
2018-06-07T07:05:05.429Z,18.30
2018-06-07T07:07:34.230Z,20.70
2018-06-07T07:10:03.073Z,16.87
2018-06-07T07:12:31.855Z,23.67
2018-06-07T07:15:00.620Z,25.83
2018-06-07T07:17:29.497Z,27.37
2018-06-07T07:19:58.279Z,27.23
2018-06-07T07:22:27.065Z,23.13
2018-06-07T07:24:55.878Z,18.10
2018-06-07T07:27:24.710Z,23.93
2018-06-07T07:29:53.605Z,21.30
2018-06-07T07:32:22.479Z,22.30
2018-06-07T07:34:51.292Z,26.87
2018-06-07T07:37:20.094Z,27.07
2018-06-07T07:39:48.879Z,20.80
2018-06-07T07:42:17.662Z,27.70
2018-06-07T07:44:46.475Z,21.93
2018-06-07T07:47:15.271Z,24.83
2018-06-07T07:49:44.103Z,22.30
2018-06-07T07:52:12.908Z,23.80
2018-06-07T07:54:41.795Z,22.93
2018-06-07T07:57:10.582Z,16.60
2018-06-07T07:59:39.399Z,23.23
2018-06-07T08:02:08.181Z,23.33
2018-06-07T08:04:37.005Z,18.57
2018-06-07T08:07:05.807Z,14.90
2018-06-07T08:09:34.595Z,18.13
2018-06-07T08:12:03.374Z,15.27
2018-06-07T08:14:32.162Z,29.37
2018-06-07T08:17:01.032Z,27.90
2018-06-07T08:19:29.816Z,25.27
2018-06-07T08:21:58.631Z,21.03
2018-06-07T08:24:27.396Z,18.93
2018-06-07T08:26:56.182Z,22.00
2018-06-07T08:29:24.976Z,21.80
2018-06-07T08:31:53.753Z,35.97
2018-06-07T08:34:22.557Z,16.47
2018-06-07T08:36:51.385Z,24.50
2018-06-07T08:39:20.204Z,17.00
2018-06-07T08:41:49.033Z,23.57
2018-06-07T08:44:17.801Z,18.20
2018-06-07T08:46:46.587Z,19.90
2018-06-07T08:49:15.369Z,17.73
2018-06-07T08:51:44.151Z,19.20
2018-06-07T08:54:12.944Z,16.30
2018-06-07T08:56:41.726Z,40.50
2018-06-07T08:59:10.546Z,20.60
2018-06-07T09:01:39.437Z,17.23
2018-06-07T09:04:08.201Z,13.90
2018-06-07T09:06:36.987Z,15.40
2018-06-07T09:09:06.801Z,32.73
2018-06-07T09:11:35.971Z,17.43
2018-06-07T09:14:05.054Z,16.53
2018-06-07T09:16:33.838Z,16.23
2018-06-07T09:19:02.615Z,22.63
2018-06-07T09:21:31.404Z,20.57
2018-06-07T09:24:00.279Z,14.40
2018-06-07T09:26:29.065Z,15.57
2018-06-07T09:28:57.842Z,14.63
2018-06-07T09:31:26.633Z,13.80
2018-06-07T09:33:55.429Z,25.67
2018-06-07T09:36:24.200Z,18.13
2018-06-07T09:38:52.966Z,15.07
2018-06-07T09:41:21.743Z,18.30
2018-06-07T09:43:50.536Z,15.27
2018-06-07T09:46:19.407Z,15.73
2018-06-07T09:48:48.216Z,17.30
2018-06-07T09:51:16.996Z,17.03
2018-06-07T09:53:45.776Z,13.43
2018-06-07T09:56:14.575Z,15.67
2018-06-07T09:58:43.413Z,14.83
2018-06-07T10:01:12.223Z,19.90
2018-06-07T10:03:41.017Z,11.10
2018-06-07T10:06:09.800Z,14.37
2018-06-07T10:08:38.694Z,13.47
2018-06-07T10:11:07.507Z,11.90
2018-06-07T10:13:36.328Z,13.97
2018-06-07T10:16:05.123Z,11.33
2018-06-07T10:18:33.952Z,9.97
2018-06-07T10:21:02.736Z,12.50
2018-06-07T10:23:31.527Z,14.93
2018-06-07T10:26:00.302Z,10.23
2018-06-07T10:28:29.094Z,17.57
2018-06-07T10:30:57.905Z,10.83
2018-06-07T10:33:26.655Z,12.30
2018-06-07T10:35:55.419Z,11.50
2018-06-07T10:38:24.223Z,10.33
2018-06-07T10:40:53.053Z,14.87
2018-06-07T10:43:21.830Z,15.57
2018-06-07T10:45:50.577Z,9.80
2018-06-07T10:48:19.336Z,14.10
2018-06-07T10:50:48.176Z,11.70
2018-06-07T10:53:17.007Z,14.40
2018-06-07T10:55:45.817Z,10.17
2018-06-07T10:58:14.619Z,11.63
2018-06-07T11:00:43.460Z,10.50
2018-06-07T11:03:12.264Z,10.50
2018-06-07T11:05:41.067Z,10.17
2018-06-07T11:08:09.841Z,12.10
2018-06-07T11:10:38.605Z,10.53
2018-06-07T11:13:07.410Z,10.97
2018-06-07T11:15:36.298Z,10.77
2018-06-07T11:18:05.145Z,10.40
2018-06-07T11:20:33.915Z,13.93
2018-06-07T11:23:02.691Z,8.73
2018-06-07T11:25:31.451Z,13.23
2018-06-07T11:28:00.229Z,10.97
2018-06-07T11:30:29.022Z,12.30
2018-06-07T11:32:57.789Z,13.07
2018-06-07T11:35:26.593Z,21.53
2018-06-07T11:37:55.484Z,15.93
2018-06-07T11:40:24.285Z,12.80
2018-06-07T11:42:53.051Z,10.30
2018-06-07T11:45:21.831Z,15.13
2018-06-07T11:47:50.615Z,13.13
2018-06-07T11:50:19.406Z,12.30
2018-06-07T11:52:48.248Z,12.20
2018-06-07T11:55:17.041Z,11.60
2018-06-07T11:57:45.808Z,8.97
2018-06-07T12:00:14.677Z,7.70
2018-06-07T12:02:43.486Z,10.97
2018-06-07T12:05:12.247Z,8.97
2018-06-07T12:07:41.039Z,14.27
2018-06-07T12:10:09.863Z,12.17
2018-06-07T12:12:38.689Z,9.43
2018-06-07T12:15:07.502Z,12.63
2018-06-07T12:17:36.345Z,12.93
2018-06-07T12:20:05.219Z,9.23
2018-06-07T12:22:34.048Z,11.37
2018-06-07T12:25:02.841Z,8.67
2018-06-07T12:27:31.716Z,14.07
2018-06-07T12:30:00.513Z,8.87
2018-06-07T12:32:29.334Z,13.37
2018-06-07T12:34:58.123Z,17.33
2018-06-07T12:37:26.903Z,15.10
2018-06-07T12:39:55.794Z,13.87
2018-06-07T12:42:24.511Z,12.80
2018-06-07T12:44:53.406Z,11.70
2018-06-07T12:47:22.187Z,12.50
2018-06-07T12:49:51.637Z,10.83
2018-06-07T12:52:20.408Z,17.00
2018-06-07T12:54:49.204Z,12.70
2018-06-07T12:57:17.998Z,14.97
2018-06-07T12:59:47.091Z,16.33
2018-06-07T13:02:15.858Z,14.20
2018-06-07T13:04:44.625Z,8.27
2018-06-07T13:07:13.397Z,6.20
2018-06-07T13:09:42.221Z,6.10
2018-06-07T13:12:10.983Z,6.57
2018-06-07T13:14:39.771Z,8.73
2018-06-07T13:17:08.565Z,6.83
2018-06-07T13:19:37.358Z,4.37
2018-06-07T13:22:06.329Z,10.93
2018-06-07T13:24:35.102Z,9.17
2018-06-07T13:27:03.859Z,9.13
2018-06-07T13:29:32.738Z,10.50
2018-06-07T13:32:01.524Z,10.00
2018-06-07T13:34:30.292Z,12.80
2018-06-07T13:36:59.096Z,8.03
2018-06-07T13:39:27.866Z,9.93
2018-06-07T13:41:56.706Z,10.57
2018-06-07T13:44:25.491Z,7.63
2018-06-07T13:46:54.307Z,6.27
2018-06-07T13:49:23.084Z,6.80
2018-06-07T13:51:51.930Z,6.53
2018-06-07T13:54:20.715Z,6.60
2018-06-07T13:56:49.505Z,5.83
2018-06-07T13:59:18.301Z,6.17
2018-06-07T14:01:47.085Z,5.53
2018-06-07T14:04:15.874Z,5.37
2018-06-07T14:06:44.702Z,8.13
2018-06-07T14:09:13.920Z,5.60
2018-06-07T14:11:42.721Z,5.27
2018-06-07T14:14:11.570Z,5.90
2018-06-07T14:16:40.355Z,8.87
2018-06-07T14:19:09.130Z,6.53
2018-06-07T14:21:37.908Z,6.50
2018-06-07T14:24:06.705Z,5.80
2018-06-07T14:26:35.471Z,5.57
2018-06-07T14:29:04.299Z,6.03
2018-06-07T14:31:33.092Z,8.00
2018-06-07T14:34:01.884Z,8.40
2018-06-07T14:36:30.682Z,9.43
2018-06-07T14:38:59.468Z,7.77
2018-06-07T14:41:28.254Z,9.27
2018-06-07T14:43:57.026Z,6.63
2018-06-07T14:46:25.841Z,9.77
2018-06-07T14:48:54.620Z,7.70
2018-06-07T14:51:23.395Z,13.10
2018-06-07T14:53:52.173Z,8.93
2018-06-07T14:56:20.969Z,11.77
2018-06-07T14:58:49.793Z,11.40
2018-06-07T15:01:18.554Z,12.47
2018-06-07T15:03:47.344Z,22.43
2018-06-07T15:06:16.138Z,11.73
2018-06-07T15:08:44.952Z,10.70
2018-06-07T15:11:13.739Z,11.60
2018-06-07T15:13:42.522Z,10.43
2018-06-07T15:16:11.305Z,12.40
2018-06-07T15:18:40.122Z,13.60
2018-06-07T15:21:09.069Z,10.67
2018-06-07T15:23:37.873Z,16.67
2018-06-07T15:26:06.676Z,12.17
2018-06-07T15:28:35.498Z,10.37
2018-06-07T15:31:04.363Z,14.13
2018-06-07T15:33:33.130Z,9.97
2018-06-07T15:36:01.949Z,8.57
2018-06-07T15:38:30.746Z,8.23
2018-06-07T15:40:59.544Z,8.83
2018-06-07T15:43:28.467Z,6.83
2018-06-07T15:45:57.348Z,8.27
2018-06-07T15:48:26.103Z,7.97
2018-06-07T15:50:54.943Z,9.13
2018-06-07T15:53:23.740Z,10.70
2018-06-07T15:55:52.560Z,12.20
2018-06-07T15:58:21.393Z,9.37
2018-06-07T16:00:50.200Z,14.83
2018-06-07T16:03:19.013Z,10.00
2018-06-07T16:05:47.861Z,9.37
2018-06-07T16:08:16.629Z,8.43
2018-06-07T16:10:45.427Z,10.80
2018-06-07T16:13:14.214Z,9.00
2018-06-07T16:15:43.019Z,9.10
2018-06-07T16:18:11.786Z,9.23
2018-06-07T16:20:40.616Z,7.73
2018-06-07T16:23:09.425Z,16.87
2018-06-07T16:25:38.223Z,8.97
2018-06-07T16:28:07.133Z,13.93
2018-06-07T16:30:35.907Z,11.80
2018-06-07T16:33:04.738Z,9.63
2018-06-07T16:49:09.323Z,12.37
2018-06-07T16:51:38.170Z,13.93
2018-06-07T16:54:06.935Z,10.63
2018-06-07T16:56:35.728Z,10.87
2018-06-07T16:59:04.572Z,11.27
2018-06-07T17:01:33.362Z,8.00
2018-06-07T17:04:02.178Z,9.67
2018-06-07T17:06:31.000Z,12.20
2018-06-07T17:08:59.835Z,13.17
2018-06-07T17:11:28.717Z,13.97
2018-06-07T17:13:57.481Z,10.23
2018-06-07T17:16:26.339Z,11.83
2018-06-07T17:18:55.102Z,14.37
2018-06-07T17:21:23.878Z,14.83
2018-06-07T17:23:52.718Z,35.40
2018-06-07T17:26:21.559Z,20.03
2018-06-07T17:28:50.337Z,13.87
2018-06-07T17:31:19.233Z,14.90
2018-06-07T17:33:48.128Z,14.70
2018-06-07T17:36:16.975Z,12.27
2018-06-07T17:38:45.758Z,18.13
2018-06-07T17:41:14.566Z,10.20
2018-06-07T17:43:43.335Z,12.70
2018-06-07T17:46:12.165Z,12.00
2018-06-07T17:48:41.011Z,9.83
2018-06-07T17:51:09.792Z,12.47
2018-06-07T17:53:38.906Z,21.73
2018-06-07T17:56:07.680Z,20.10
2018-06-07T17:58:36.563Z,14.00
2018-06-07T18:01:05.436Z,12.70
2018-06-07T18:03:34.218Z,11.83
2018-06-07T18:06:02.983Z,11.57
2018-06-07T18:08:31.787Z,12.90
2018-06-07T18:11:00.580Z,35.60
2018-06-07T18:13:29.493Z,13.77
2018-06-07T18:15:58.339Z,15.40
2018-06-07T18:18:27.297Z,13.87
2018-06-07T18:30:11.258Z,16.57
2018-06-07T18:32:40.076Z,13.60
2018-06-07T18:35:08.950Z,15.97
2018-06-07T18:37:37.739Z,32.90
2018-06-07T18:58:26.619Z,11.77
2018-06-07T19:00:55.393Z,13.10
2018-06-07T19:03:24.177Z,11.60
2018-06-07T19:05:52.972Z,15.80
2018-06-07T19:08:21.772Z,14.60
2018-06-07T19:10:50.577Z,11.03
2018-06-07T19:13:24.318Z,20.57
2018-06-07T19:15:53.131Z,16.53
2018-06-07T19:18:22.305Z,11.87
2018-06-07T19:20:56.193Z,12.93
2018-06-07T19:23:25.025Z,10.47
2018-06-07T19:25:58.903Z,10.80
2018-06-07T19:28:27.863Z,14.70
2018-06-07T19:30:56.672Z,9.93
2018-06-07T19:33:30.674Z,12.63
2018-06-07T19:35:59.541Z,12.30
2018-06-07T19:38:28.338Z,11.80
2018-06-07T19:41:02.275Z,12.50
2018-06-07T19:43:31.062Z,11.43
2018-06-07T19:45:59.849Z,11.87
2018-06-07T19:48:28.663Z,12.77
2018-06-07T19:50:57.457Z,11.50
2018-06-07T19:53:26.280Z,16.67
2018-06-07T19:55:55.117Z,9.83
2018-06-07T19:58:23.918Z,32.73
2018-06-07T20:00:52.720Z,37.23
2018-06-07T20:03:21.648Z,19.50
2018-06-07T20:05:50.436Z,13.00
2018-06-07T20:08:19.247Z,18.27
2018-06-07T20:10:48.063Z,14.00
2018-06-07T20:13:16.845Z,13.03
2018-06-07T20:15:45.667Z,14.27
2018-06-07T20:18:14.520Z,16.07
2018-06-07T20:20:43.397Z,17.37
2018-06-07T20:23:12.200Z,14.77
2018-06-07T20:25:41.079Z,15.90
2018-06-07T20:28:09.875Z,15.70
2018-06-07T20:30:38.708Z,14.50
2018-06-07T20:33:07.556Z,13.70
2018-06-07T20:35:36.374Z,13.80
2018-06-07T20:38:05.164Z,15.47
2018-06-07T20:40:33.959Z,15.83
2018-06-07T20:43:02.723Z,13.23
2018-06-07T20:45:31.499Z,14.97
2018-06-07T20:48:00.417Z,14.57
2018-06-07T20:50:29.242Z,12.27
2018-06-07T20:52:58.026Z,14.70
2018-06-07T20:55:26.797Z,16.07
2018-06-07T20:57:55.583Z,14.00
2018-06-07T21:00:24.380Z,15.17
2018-06-07T21:02:53.156Z,14.83
2018-06-07T21:05:21.965Z,12.30
2018-06-07T21:07:50.729Z,13.00
2018-06-07T21:10:19.603Z,14.43
2018-06-07T21:12:48.363Z,14.87
2018-06-07T21:15:17.138Z,18.07
2018-06-07T21:17:45.899Z,14.77
2018-06-07T21:20:14.680Z,14.27
2018-06-07T21:22:43.425Z,14.30
2018-06-07T21:25:12.209Z,13.50
2018-06-07T21:27:40.992Z,17.63
2018-06-07T21:30:09.813Z,14.60
2018-06-07T21:32:38.714Z,13.93
2018-06-07T21:35:07.487Z,12.87
2018-06-07T21:37:36.248Z,13.83
2018-06-07T21:40:05.043Z,12.53
2018-06-07T21:42:33.834Z,12.80
2018-06-07T21:45:02.582Z,13.97
2018-06-07T21:47:31.367Z,15.40
2018-06-07T21:50:00.163Z,14.60
2018-06-07T21:52:28.968Z,15.50
2018-06-07T21:54:57.829Z,14.70
2018-06-07T21:57:26.596Z,13.87
2018-06-07T21:59:55.391Z,12.57
2018-06-07T22:02:24.175Z,13.17
2018-06-07T22:04:52.950Z,13.90
2018-06-07T22:07:21.719Z,12.47
2018-06-07T22:09:50.487Z,17.33
2018-06-07T22:12:19.287Z,11.97
2018-06-07T22:14:48.072Z,17.27
2018-06-07T22:17:16.905Z,11.50
2018-06-07T22:19:45.770Z,12.23
2018-06-07T22:22:14.616Z,12.73
2018-06-07T22:24:43.439Z,13.53
2018-06-07T22:27:12.252Z,11.23
2018-06-07T22:29:41.064Z,14.70
2018-06-07T22:32:09.930Z,12.97
2018-06-07T22:34:38.764Z,11.93
2018-06-07T22:37:07.550Z,12.90
2018-06-07T22:39:36.443Z,13.77
2018-06-07T22:42:05.225Z,12.90
2018-06-07T22:44:34.001Z,17.73
2018-06-07T22:47:02.803Z,13.73
2018-06-07T22:49:31.571Z,14.43
2018-06-07T22:52:00.365Z,14.17
2018-06-07T22:54:29.159Z,16.47
2018-06-07T22:56:57.976Z,15.07
2018-06-07T22:59:26.735Z,13.50
2018-06-07T23:01:55.585Z,14.20
2018-06-07T23:04:24.355Z,18.93
2018-06-07T23:06:53.137Z,17.90
2018-06-07T23:09:22.029Z,20.03
2018-06-07T23:11:50.799Z,14.83
2018-06-07T23:14:19.576Z,14.37
2018-06-07T23:16:48.360Z,17.17
2018-06-07T23:19:17.123Z,15.73
2018-06-07T23:21:45.936Z,12.70
2018-06-07T23:24:14.732Z,15.43
2018-06-07T23:26:43.498Z,15.57
2018-06-07T23:29:12.225Z,15.83
2018-06-07T23:31:41.006Z,13.03
2018-06-07T23:34:09.748Z,14.63
2018-06-07T23:36:38.516Z,19.10
2018-06-07T23:39:09.258Z,17.70
2018-06-07T23:41:38.233Z,12.13
2018-06-07T23:44:07.058Z,14.27
2018-06-07T23:46:35.918Z,13.57
2018-06-07T23:49:04.654Z,12.07
2018-06-07T23:51:33.552Z,15.40
2018-06-07T23:54:02.316Z,16.33
2018-06-07T23:56:31.073Z,16.23
2018-06-07T23:58:59.872Z,13.30
